Liste des engagé(e)s
Classement
PDF
   
         
   
 
Pos N° Nom Prénom Pays Temps Ecart Pl. Cat. Pl. Sexe Club
1 105 GUILLERMONT Anthony 01:02:08 1 SE 1 M
2 116 BOUVIER-PARIS Regis 01:03:37 01:29 2 SE 2 M
3 139 MURACA Bruno 01:05:02 02:54 3 SE 3 M Bruno Muraca
4 79 LEBLOND Nicolas 01:05:29 03:21 4 SE 4 M
5 81 FRAPPA Florian 01:06:02 03:54 5 SE 5 M
6 239 ARNAUD Julien 01:06:22 04:14 6 SE 6 M
7 140 MACARIO Benoît 01:07:26 05:18 7 SE 7 M
8 196 HAMITOUCHE Malika 01:08:16 06:08 1 V1 1 F Les Morues
9 189 LENGLET Joris 01:08:27 06:19 1 CA 8 M
10 198 LESTRADE Sandrine 01:08:30 06:22 2 V1 2 F Les Morues
11 238 PEYREDIEU Alexandre 01:08:36 06:28 8 SE 9 M
12 225 HILL Andrew 01:08:44 06:36 1 V1 10 M
13 55 DALLAPORTA Maxime 01:09:25 07:17 9 SE 11 M
14 77 AIDLI-BOUZIAT Aline 01:09:27 07:19 1 SE 3 F
15 70 CUSANNO David 01:11:29 09:21 10 SE 12 M
16 65 MERCIER LoĂŻc 01:11:31 09:23 11 SE 13 M
17 143 CHIRAT Cyril 01:11:48 09:40 12 SE 14 M
18 144 CHIRAT Michael 01:11:51 09:43 13 SE 15 M
19 152 CHAGAS Paul 01:11:58 09:50 1 ES 4 F
20 96 LABEYE Louis 01:11:58 09:50 1 ES 16 M Louis Labeye
21 1 GENIN Ludovic 01:11:59 09:51 14 SE 17 M
22 210 CAMBUS Quentin 01:12:49 10:41 2 ES 18 M Red Panda
23 118 AILLOUD Stephane 01:15:44 13:36 2 V1 19 M
24 117 AILLOUD Aurelie 01:16:04 13:56 3 V1 5 F
25 83 DE TREMEUGE Aurélien 01:16:53 14:45 15 SE 20 M
26 80 MONTAGNA Patrick 01:17:11 15:03 1 V2 21 M PATRICK MONTAGNA
27 82 BROCHIER Aurore 01:17:29 15:21 2 SE 6 F
28 58 BERMOND Malaurie 01:17:55 15:47 3 SE 7 F Bermond family
29 56 SAGGIORATO DĂ©borah 01:18:06 15:58 4 SE 8 F Bermond family
30 108 PAQUET Kevin 01:18:10 16:02 16 SE 22 M
31 57 CHABASSE Alain 01:18:14 16:06 2 V2 23 M Bermond family
32 226 OLIVIER Bollard 01:19:38 17:30 17 SE 24 M KAZE
33 227 MICHALLAT Mickael 01:19:40 17:32 18 SE 25 M KAZE
34 120 DUFRENNE KĂ©vin 01:19:55 17:47 19 SE 26 M Pampilles
35 115 FAVETTO Sylvain 01:19:57 17:49 20 SE 27 M
36 114 FAVETTO Jean pierre 01:19:57 17:49 3 V2 28 M
37 121 ANDRE Vianney 01:20:13 18:05 21 SE 29 M Pampilles
38 60 BELLANGER Eric 01:20:19 18:11 3 V1 30 M
39 304 PELEGRIN Raphaël 01:21:10 19:02 22 SE 31 M Garçons Sauvages
40 111 DEBERNARDY LoĂŻc 01:23:23 21:15 3 ES 32 M Les baroudeurs
41 112 DEBERNARDY Marc 01:23:32 21:24 1 V3 33 M Les baroudeurs
42 146 ROBERT Emilien 01:23:38 21:30 4 ES 34 M Retour vers le Fitness
43 168 PETIT David 01:23:39 21:31 4 V1 35 M Retour vers le Fitness
44 147 BOUVIER Raphael 01:23:45 21:37 4 V2 36 M Retour vers le Fitness
45 148 ROBAR Jean-françois 01:23:50 21:42 5 V1 37 M Retour vers le Fitness
46 289 LAGNEUX Damien 01:23:52 21:44 23 SE 38 M Team Gambetta
47 69 LABEYE Richard 01:24:02 21:54 5 V2 39 M
48 145 ROBERT Augustin 01:24:13 22:05 5 ES 40 M Retour vers le Fitness
49 84 LEGER Clément 01:24:54 22:46 24 SE 41 M Les estropiés
50 104 DESHAYES Bastien 01:24:56 22:48 25 SE 42 M Les estropiés
51 86 MANTEAUX Pierre-luc 01:24:57 22:49 26 SE 43 M Les estropiés
52 85 KERNOA Yoann 01:24:58 22:50 27 SE 44 M Les estropiés
53 214 JULIENNE Malone 01:26:26 24:18 6 ES 45 M Red Panda
54 151 DESSERT Juliette 01:26:46 24:38 2 ES 9 F
55 54 BOUHET Jerome 01:27:18 25:10 6 V2 46 M
56 59 BELLANGER Nathan 01:28:22 26:14 2 CA 47 M
57 200 BIGOTTE Priscillia 01:28:51 26:43 5 SE 10 F DJ Drie Grenoble
58 199 LAMPASONA Adrien 01:28:53 26:45 28 SE 48 M DJ Drie Grenoble
59 290 BERNAL Eric 01:29:31 27:23 29 SE 49 M Team Gambetta
60 303 GIRON Amandine 01:29:52 27:44 6 SE 11 F Team Gambetta
61 288 BACAS Alexiane 01:29:52 27:44 7 SE 12 F Team Gambetta
62 68 LELIEVRE Alexandra 01:30:12 28:04 8 SE 13 F Les machines
63 75 QUATELA CĂ©lia 01:30:13 28:05 9 SE 14 F
64 67 BATTARD Didier 01:30:14 28:06 30 SE 50 M Les machines
65 170 REBOUL Hélène 01:32:42 30:34 4 V1 15 F
66 169 REBOUL Olivier 01:32:44 30:36 7 V2 51 M
67 264 GRACIA SĂ©verine 01:32:50 30:42 10 SE 16 F RBG 38
68 265 DUBUS David 01:32:51 30:43 6 V1 52 M RBG 38
69 250 ARTAUD Didier 01:32:58 30:50 8 V2 53 M Team SMB
70 253 ROCHAS AnaĂŻs 01:33:05 30:57 31 SE 54 M Team SMB
71 248 BERARD Nicolas 01:33:20 31:12 7 V1 55 M Team SMB
72 247 DEMIERRE Alexandre 01:33:26 31:18 32 SE 56 M Team SMB
73 131 ALBERTI Stanislas 01:33:38 31:30 8 V1 57 M GYMCLUB
74 135 MOYNET Cecile 01:33:56 31:48 5 V1 17 F GYMCLUB
75 136 MOYNET Laurent 01:33:59 31:51 9 V1 58 M GYMCLUB
76 130 MICHAUT Geraldine 01:34:12 32:04 11 SE 18 F GYMCLUB
77 129 BERTON Patrice 01:34:13 32:05 9 V2 59 M GYMCLUB
78 138 DUTTO Julien 01:34:16 32:08 10 V1 60 M GYMCLUB
79 171 MICHAL Bianca 01:34:56 32:48 12 SE 19 F team Sangoku
80 172 EL HOUSSINE Assia 01:34:58 32:50 13 SE 20 F team Sangoku
81 345 BARRE-BAYARD Julie 01:35:08 33:00 14 SE 21 F
82 63 MALLARD Isabelle 01:35:08 33:00 6 V1 22 F Fauve qui peut
83 64 MARUCCINI Virginie 01:35:09 33:01 7 V1 23 F Fauve qui peut
84 66 CHARLIER CĂ©line 01:35:10 33:02 8 V1 24 F Fauve qui peut
85 62 MALLARD Louise 01:35:11 33:03 1 JU 25 F Fauve qui peut
86 346 SERPEILLE Anne laure 01:35:17 33:09 15 SE 26 F
87 173 CLÉMENT Alex 01:35:27 33:19 11 V1 61 M team Sangoku
88 257 PANART Manuel 01:35:46 33:38 10 V2 62 M Les 4 fantastiques
89 254  BOUKHE Brahim 01:35:46 33:38 12 V1 63 M Les 4 fantastiques
90 255 JOLY   Pierre 01:35:46 33:38 33 SE 64 M Les 4 fantastiques
91 256  CHARAT Dorian 01:35:46 33:38 34 SE 65 M Les 4 fantastiques
92 166 ROCHE Lionel 01:37:47 35:39 13 V1 66 M RED RĂ©seau Entrepreneurs Dauphinois
93 177 CHARLOT Fabrice 01:37:50 35:42 14 V1 67 M RED RĂ©seau Entrepreneurs Dauphinois
94 178 KOZACK Fabien 01:37:55 35:47 35 SE 68 M Fabien Kozack
95 167 HARTVICK Laurent 01:38:22 36:14 15 V1 69 M RED RĂ©seau Entrepreneurs Dauphinois
96 165 PONCET Raphael 01:38:29 36:21 36 SE 70 M RED RĂ©seau Entrepreneurs Dauphinois
97 150 INGLESE Philippe 01:38:56 36:48 37 SE 71 M
98 149 COLLART Jean-claude 01:39:00 36:52 38 SE 72 M
99 71 PAPIN Gregory 01:40:28 38:20 39 SE 73 M Les baroudeurs
100 78 BASQUIN Adèle 01:40:59 38:51 3 ES 27 F Les baroudeurs
101 74 LIEBAULT Vincent 01:41:02 38:54 11 V2 74 M Les baroudeurs
102 296 MOISE Claudia 01:41:05 38:57 16 SE 28 F Team Gambetta
103 72 FAURE Vanessa 01:41:05 38:57 17 SE 29 F Les baroudeurs
104 132 NICOUD Franck 01:41:30 39:22 40 SE 75 M
105 134 BARLET Roman 01:41:36 39:28 41 SE 76 M
106 133 RUIZ-HIDALGO Thomas 01:41:38 39:30 42 SE 77 M
107 73 PAPIN Fabrice 01:41:39 39:31 16 V1 78 M Les baroudeurs
108 137 MENARD Chloé 01:41:43 39:35 4 ES 30 F
109 209 CAMBUS Francois 01:42:06 39:58 12 V2 79 M Red Panda
110 211 CAMBUS Killian 01:42:10 40:02 7 ES 80 M Red Panda
111 185 FAUX Gregory 01:42:12 40:04 17 V1 81 M ALV GYM
112 141 OUVRIER-NEYRET Christelle 01:42:53 40:45 9 V1 31 F ALV GYM
113 142 DELVAEN Axel 01:42:54 40:46 43 SE 82 M ALV GYM
114 107 BRANCIARD Laure 01:43:13 41:05 18 SE 32 F Les on verra bien
115 97 BERTHIER Melanie 01:43:13 41:05 19 SE 33 F Les on verra bien
116 99 STOECKLIN Morgane 01:43:16 41:08 20 SE 34 F Les on verra bien
117 100 SCHWARTZ Pierre alexandre 01:43:16 41:08 44 SE 83 M Les on verra bien
118 106 SAVARESE Fanny 01:43:27 41:19 21 SE 35 F Les on verra bien
119 98 WESTHEIMER Margaux 01:43:31 41:23 22 SE 36 F Les on verra bien
120 101 BROGLIN Quentin 01:44:56 42:48 45 SE 84 M
121 102 ROSSIGNOL Vincent-naĂŻl 01:45:08 43:00 23 SE 37 F
122 103 CHEVALLIER Julyne 01:45:13 43:05 24 SE 38 F
123 89 LEONE Kentin 01:46:55 44:47 46 SE 85 M SERMORENS CONSULTANTS
124 110 VIAL BUCH Alexandre 01:47:01 44:53 8 ES 86 M SERMORENS CONSULTANTS
125 90 LE MONNIER Steve 01:47:09 45:01 47 SE 87 M SERMORENS CONSULTANTS
126 282 DEMSKI René 01:47:19 45:11 18 V1 88 M Vingt coeurs
127 283 SELLA Romain 01:47:20 45:12 48 SE 89 M Vingt coeurs
128 87 BOUFFAR ROUPE Norah 01:47:31 45:23 25 SE 39 F SERMORENS CONSULTANTS
129 88 BOUFFAR ROUPE Jean noel 01:47:38 45:30 49 SE 90 M SERMORENS CONSULTANTS
130 91 BOUFFAR ROUPE Yannick 01:47:42 45:34 19 V1 91 M SERMORENS CONSULTANTS
131 109 ANDREATTA Bastien 01:47:47 45:39 50 SE 92 M SERMORENS CONSULTANTS
132 311 ADRIAENS Sophie 01:47:55 45:47 26 SE 40 F
133 284 ARNAL Vincent 01:47:56 45:48 20 V1 93 M Vingt coeurs
134 278 CLEMENSON Stéphane 01:47:56 45:48 51 SE 94 M Vingt coeurs
135 92 MACHON Jonathan 01:47:56 45:48 52 SE 95 M SERMORENS CONSULTANTS
136 286 TERRAL Nicolas 01:47:57 45:49 21 V1 96 M Vingt coeurs
137 287 POPULAIRE Charles 01:47:59 45:51 22 V1 97 M Vingt coeurs
138 280 BUCLON Alexandre 01:48:00 45:52 53 SE 98 M Vingt coeurs
139 94 BOUFFAR ROUPE Jehan 01:48:08 46:00 54 SE 99 M SERMORENS CONSULTANTS
140 305 LAMBERT Florian 01:48:18 46:10 55 SE 100 M Garçons Sauvages
141 229 CUINET Samuel 01:48:18 46:10 56 SE 101 M Garçons Sauvages
142 205 CHANVILLARD Fred 01:48:23 46:15 23 V1 102 M les fantastiques pieds nickelés
143 312 JAILLET Caroline 01:48:33 46:25 27 SE 41 F
144 285 DESHAYES Romain 01:48:34 46:26 57 SE 103 M Garçons Sauvages
145 204 MASSIGNANI Eric 01:48:40 46:32 13 V2 104 M LES FANTASTIQUES PIEDS NICKELES
146 281 SPOTO Frederic 01:48:53 46:45 24 V1 105 M
147 207 MARQUET SĂ©bastien 01:48:54 46:46 58 SE 106 M LES FANTASTIQUES PIEDS NICKELES
148 228 BENOIT Cyril 01:48:59 46:51 25 V1 107 M les fantastiques pieds nickelés
149 206 JEAN David 01:49:06 46:58 26 V1 108 M LES FANTASTIQUES PIEDS NICKELES
150 182 MENEGHIN Claire 01:51:35 49:27 10 V1 42 F Capv
151 313 COUX SĂ©bastien 01:52:22 50:14 59 SE 109 M Les Zermouches
152 292 GIAI-LEVRA Karine 01:52:23 50:15 11 V1 43 F Team SHAKA
153 315 OTTOBON Romain 01:52:24 50:16 60 SE 110 M Les Zermouches
154 183 TEDESCHI Annabelle 01:52:33 50:25 28 SE 44 F Capv
155 184 FENOLI Kevin 01:52:35 50:27 61 SE 111 M Capv
156 179 BLANC- MATHIEU Guillaume 01:52:36 50:28 62 SE 112 M Capv
157 306 TRUCHET Aurore 01:52:49 50:41 12 V1 45 F Team SHAKA
158 180 DUCHAMP Johnny 01:52:51 50:43 27 V1 113 M Capv
159 127 MONTAGNAT-RENTIER Fabien 01:52:51 50:43 28 V1 114 M Les baroudeurs
160 293 MARION Christine 01:52:54 50:46 13 V1 46 F Team SHAKA
161 181 GONTRAN Alexandre 01:53:12 51:04 63 SE 115 M Capv
162 232 HERMANN Romain 01:53:30 51:22 29 SE 47 F 4 pour une
163 233 ORLHAC Meije 01:53:47 51:39 30 SE 48 F 4 pour une
164 231 ORLHAC Mathilde 01:53:50 51:42 31 SE 49 F mathilde herrmann
165 230 ORLHAC Guilhem 01:53:54 51:46 64 SE 116 M 4 pour une
166 320 MEILLAT Marina 01:54:39 52:31 32 SE 50 F
167 235 GAUTIER Fanny 01:54:48 52:40 33 SE 51 F
168 319 MEILLAT Romane 01:54:49 52:41 34 SE 52 F
169 234 DEMONCHY Claire 01:54:50 52:42 14 V1 53 F
170 314 COUX Delphine 01:57:40 55:32 35 SE 54 F Les Zermouches
171 262 YEMOFIO Cyril 01:58:31 56:23 65 SE 117 M Rat Relations
172 258 SAM Sullivan 01:58:36 56:28 66 SE 118 M Rat Relations
173 263 SANTOS Monica 01:58:50 56:42 36 SE 55 F Rat Relations
174 259 MULLAHEY Stephanie 01:58:51 56:43 37 SE 56 F Rat Relations
175 261 NAHAS May-grace 01:58:52 56:44 38 SE 57 F Rat Relations
176 267 BUFFOLATO Théo 01:59:06 56:58 1 JU 119 M
177 266 BESSON Pauline 01:59:08 57:00 2 JU 58 F
178 124 MOLLARD Anthony 02:02:37 01:00:29 67 SE 120 M Pampilles
179 240 CELANI Tiphaine 02:05:19 01:03:11 39 SE 59 F Pit'R essai fait !
180 245 NEUVILLE Philippe 02:05:24 01:03:16 68 SE 121 M Pit'R essai fait !
181 241 THONIEL Justine 02:05:25 01:03:17 40 SE 60 F Pit'R essai fait !
182 249 RENAUD Julien 02:05:28 01:03:20 69 SE 122 M Pit'R essai fait !
183 242 COULLOMB Chloé 02:05:32 01:03:24 41 SE 61 F Pit'R essai fait !
184 243 SIMONEAU Sandra 02:05:34 01:03:26 42 SE 62 F Pit'R essai fait !
185 246 GANDIT Doriane 02:05:35 01:03:27 15 V1 63 F Pit'R essai fait !
186 244 SANNET Hank 02:05:36 01:03:28 9 ES 123 M Pit'R essai fait !
187 125 DOLGOPOLOFF Aurelia 02:06:52 01:04:44 43 SE 64 F Pampilles
188 154 NGUYEN Mathieu 02:07:31 01:05:23 3 CA 124 M Apéro_Team
189 317 BARJHOUX Denis 02:08:04 01:05:56 2 V3 125 M Germaine
190 161 BARTKOWIAK Isabelle 02:08:16 01:06:08 44 SE 65 F Apéro_Team
191 159 DINH Philippe 02:08:19 01:06:11 29 V1 126 M Apéro_Team
192 160 DINH Mélodie 02:08:20 01:06:12 1 CA 66 F Apéro_Team
193 157 NGUYEN Lionel 02:08:20 01:06:12 4 CA 127 M Apéro_Team
194 155 NGUYEN Ba trung 02:08:20 01:06:12 14 V2 128 M Apéro_Team
195 156 DINH Antoine 02:08:21 01:06:13 30 V1 129 M Apéro_Team
196 163 TRAN Van frédéric 02:08:21 01:06:13 70 SE 130 M Apéro_Team
197 126 DIGILIO Paolo 02:08:25 01:06:17 15 V2 131 M Pampilles
198 186 SERRA Pierre 02:08:45 01:06:37 31 V1 132 M les fantastiques pieds nickelés
199 301 CHASSINE Thierry 02:09:01 01:06:53 32 V1 133 M Germaine
200 300 GREFFE JUTRAS CĂ©cile 02:09:01 01:06:53 16 V1 67 F Germaine
  La Renversante 5 Vagues Loisirs 11km - Timing Perf Event 2019
 
Nombre ou lettres (3 minimum)
Classement    
Filtre :
Rang :